sensor_id;sensor_type;location;lat;lon;timestamp;P1;durP1;ratioP1;P2;durP2;ratioP2
52458;SDS011;38372;52.902;6.024;2022-10-17T00:00:22;17.13;;;5.03;;
52458;SDS011;38372;52.902;6.024;2022-10-17T00:02:48;12.00;;;5.75;;
52458;SDS011;38372;52.902;6.024;2022-10-17T00:05:13;16.58;;;6.18;;
52458;SDS011;38372;52.902;6.024;2022-10-17T00:07:39;11.15;;;4.78;;
52458;SDS011;38372;52.902;6.024;2022-10-17T00:10:05;16.48;;;5.90;;
52458;SDS011;38372;52.902;6.024;2022-10-17T00:12:32;10.18;;;5.72;;
52458;SDS011;38372;52.902;6.024;2022-10-17T00:14:58;17.98;;;5.95;;
52458;SDS011;38372;52.902;6.024;2022-10-17T00:17:24;19.88;;;6.30;;
52458;SDS011;38372;52.902;6.024;2022-10-17T00:19:50;13.40;;;6.70;;
52458;SDS011;38372;52.902;6.024;2022-10-17T00:22:16;11.32;;;5.93;;
52458;SDS011;38372;52.902;6.024;2022-10-17T00:24:42;15.05;;;6.18;;
52458;SDS011;38372;52.902;6.024;2022-10-17T00:27:07;11.05;;;5.45;;
52458;SDS011;38372;52.902;6.024;2022-10-17T00:29:33;16.02;;;5.93;;
52458;SDS011;38372;52.902;6.024;2022-10-17T00:31:59;16.85;;;5.95;;
52458;SDS011;38372;52.902;6.024;2022-10-17T00:34:27;12.60;;;5.10;;
52458;SDS011;38372;52.902;6.024;2022-10-17T00:36:54;11.48;;;5.70;;
52458;SDS011;38372;52.902;6.024;2022-10-17T00:39:20;14.13;;;6.32;;
52458;SDS011;38372;52.902;6.024;2022-10-17T00:41:46;9.82;;;5.13;;
52458;SDS011;38372;52.902;6.024;2022-10-17T00:49:23;16.00;;;4.97;;
52458;SDS011;38372;52.902;6.024;2022-10-17T00:51:53;12.60;;;5.55;;
52458;SDS011;38372;52.902;6.024;2022-10-17T00:54:26;11.50;;;5.38;;
52458;SDS011;38372;52.902;6.024;2022-10-17T00:56:55;10.27;;;5.55;;
52458;SDS011;38372;52.902;6.024;2022-10-17T00:59:22;9.80;;;5.65;;
52458;SDS011;38372;52.902;6.024;2022-10-17T01:02:08;10.38;;;5.40;;
52458;SDS011;38372;52.902;6.024;2022-10-17T01:04:38;7.25;;;5.00;;
52458;SDS011;38372;52.902;6.024;2022-10-17T01:07:08;11.40;;;5.72;;
52458;SDS011;38372;52.902;6.024;2022-10-17T01:09:34;9.45;;;5.45;;
52458;SDS011;38372;52.902;6.024;2022-10-17T01:17:32;12.40;;;6.78;;
52458;SDS011;38372;52.902;6.024;2022-10-17T01:25:28;12.95;;;5.90;;
52458;SDS011;38372;52.902;6.024;2022-10-17T01:30:54;10.82;;;6.28;;
52458;SDS011;38372;52.902;6.024;2022-10-17T01:33:53;11.75;;;5.43;;
52458;SDS011;38372;52.902;6.024;2022-10-17T01:39:09;9.55;;;5.88;;
52458;SDS011;38372;52.902;6.024;2022-10-17T01:41:48;9.13;;;6.07;;
52458;SDS011;38372;52.902;6.024;2022-10-17T01:44:18;9.82;;;6.15;;
52458;SDS011;38372;52.902;6.024;2022-10-17T01:46:48;11.57;;;6.10;;
52458;SDS011;38372;52.902;6.024;2022-10-17T01:49:17;12.93;;;7.10;;
52458;SDS011;38372;52.902;6.024;2022-10-17T01:51:50;14.00;;;6.95;;
52458;SDS011;38372;52.902;6.024;2022-10-17T01:54:30;15.75;;;6.38;;
52458;SDS011;38372;52.902;6.024;2022-10-17T01:57:00;11.20;;;6.80;;
52458;SDS011;38372;52.902;6.024;2022-10-17T01:59:33;14.10;;;7.38;;
52458;SDS011;38372;52.902;6.024;2022-10-17T02:02:04;11.82;;;7.45;;
52458;SDS011;38372;52.902;6.024;2022-10-17T02:04:31;13.60;;;7.75;;
52458;SDS011;38372;52.902;6.024;2022-10-17T02:07:05;12.65;;;7.75;;
52458;SDS011;38372;52.902;6.024;2022-10-17T02:09:31;14.35;;;7.65;;
52458;SDS011;38372;52.902;6.024;2022-10-17T02:17:33;12.95;;;9.02;;
52458;SDS011;38372;52.902;6.024;2022-10-17T02:20:24;13.60;;;7.90;;
52458;SDS011;38372;52.902;6.024;2022-10-17T02:23:17;16.23;;;8.57;;
52458;SDS011;38372;52.902;6.024;2022-10-17T02:31:57;14.20;;;9.32;;
52458;SDS011;38372;52.902;6.024;2022-10-17T02:34:28;15.60;;;11.20;;
52458;SDS011;38372;52.902;6.024;2022-10-17T02:37:07;12.95;;;10.60;;
52458;SDS011;38372;52.902;6.024;2022-10-17T02:39:36;18.00;;;10.90;;
52458;SDS011;38372;52.902;6.024;2022-10-17T02:42:05;15.23;;;10.55;;
52458;SDS011;38372;52.902;6.024;2022-10-17T02:44:34;18.77;;;10.90;;
52458;SDS011;38372;52.902;6.024;2022-10-17T02:47:17;15.23;;;11.48;;
52458;SDS011;38372;52.902;6.024;2022-10-17T02:49:50;14.68;;;10.93;;
52458;SDS011;38372;52.902;6.024;2022-10-17T02:55:07;17.60;;;11.48;;
52458;SDS011;38372;52.902;6.024;2022-10-17T02:57:44;16.70;;;11.90;;
52458;SDS011;38372;52.902;6.024;2022-10-17T03:00:17;15.02;;;11.98;;
52458;SDS011;38372;52.902;6.024;2022-10-17T03:02:44;17.92;;;12.82;;
52458;SDS011;38372;52.902;6.024;2022-10-17T03:05:13;17.25;;;12.43;;
52458;SDS011;38372;52.902;6.024;2022-10-17T03:07:49;18.27;;;12.68;;
52458;SDS011;38372;52.902;6.024;2022-10-17T03:10:16;19.10;;;12.07;;
52458;SDS011;38372;52.902;6.024;2022-10-17T03:12:43;18.42;;;12.38;;
52458;SDS011;38372;52.902;6.024;2022-10-17T03:15:09;16.23;;;12.80;;
52458;SDS011;38372;52.902;6.024;2022-10-17T03:17:36;18.20;;;12.88;;
52458;SDS011;38372;52.902;6.024;2022-10-17T03:20:02;22.33;;;13.93;;
52458;SDS011;38372;52.902;6.024;2022-10-17T03:22:29;16.85;;;12.80;;
52458;SDS011;38372;52.902;6.024;2022-10-17T03:24:54;19.50;;;12.98;;
52458;SDS011;38372;52.902;6.024;2022-10-17T03:27:20;18.98;;;13.27;;
52458;SDS011;38372;52.902;6.024;2022-10-17T03:29:46;20.55;;;13.68;;
52458;SDS011;38372;52.902;6.024;2022-10-17T03:32:12;18.73;;;13.25;;
52458;SDS011;38372;52.902;6.024;2022-10-17T03:34:38;16.50;;;12.93;;
52458;SDS011;38372;52.902;6.024;2022-10-17T03:37:03;15.48;;;12.43;;
52458;SDS011;38372;52.902;6.024;2022-10-17T03:39:29;17.98;;;13.48;;
52458;SDS011;38372;52.902;6.024;2022-10-17T03:41:55;24.35;;;14.50;;
52458;SDS011;38372;52.902;6.024;2022-10-17T03:44:20;17.70;;;12.73;;
52458;SDS011;38372;52.902;6.024;2022-10-17T03:46:46;22.55;;;13.65;;
52458;SDS011;38372;52.902;6.024;2022-10-17T03:49:12;19.55;;;12.88;;
52458;SDS011;38372;52.902;6.024;2022-10-17T03:51:39;20.02;;;13.85;;
52458;SDS011;38372;52.902;6.024;2022-10-17T03:54:05;19.42;;;13.80;;
52458;SDS011;38372;52.902;6.024;2022-10-17T03:56:30;19.42;;;13.85;;
52458;SDS011;38372;52.902;6.024;2022-10-17T03:58:56;17.95;;;13.30;;
52458;SDS011;38372;52.902;6.024;2022-10-17T04:01:22;24.73;;;15.30;;
52458;SDS011;38372;52.902;6.024;2022-10-17T04:03:53;20.38;;;14.10;;
52458;SDS011;38372;52.902;6.024;2022-10-17T04:06:20;18.58;;;14.07;;
52458;SDS011;38372;52.902;6.024;2022-10-17T04:08:46;23.33;;;15.05;;
52458;SDS011;38372;52.902;6.024;2022-10-17T04:11:14;19.90;;;14.07;;
52458;SDS011;38372;52.902;6.024;2022-10-17T04:13:42;21.27;;;14.50;;
52458;SDS011;38372;52.902;6.024;2022-10-17T04:16:09;23.33;;;14.70;;
52458;SDS011;38372;52.902;6.024;2022-10-17T04:18:41;22.88;;;15.20;;
52458;SDS011;38372;52.902;6.024;2022-10-17T04:21:07;20.92;;;14.82;;
52458;SDS011;38372;52.902;6.024;2022-10-17T04:23:34;19.25;;;14.50;;
52458;SDS011;38372;52.902;6.024;2022-10-17T04:26:00;20.10;;;13.85;;
52458;SDS011;38372;52.902;6.024;2022-10-17T04:28:27;17.92;;;13.93;;
52458;SDS011;38372;52.902;6.024;2022-10-17T04:30:57;17.60;;;13.07;;
52458;SDS011;38372;52.902;6.024;2022-10-17T04:33:28;18.00;;;12.88;;
52458;SDS011;38372;52.902;6.024;2022-10-17T04:36:13;20.05;;;12.65;;
52458;SDS011;38372;52.902;6.024;2022-10-17T04:38:39;17.88;;;12.68;;
52458;SDS011;38372;52.902;6.024;2022-10-17T04:41:06;17.58;;;13.65;;
52458;SDS011;38372;52.902;6.024;2022-10-17T04:43:36;17.10;;;12.13;;
52458;SDS011;38372;52.902;6.024;2022-10-17T04:46:04;18.95;;;12.80;;
52458;SDS011;38372;52.902;6.024;2022-10-17T04:48:34;16.98;;;11.80;;
52458;SDS011;38372;52.902;6.024;2022-10-17T04:51:00;14.20;;;11.98;;
52458;SDS011;38372;52.902;6.024;2022-10-17T04:53:32;17.25;;;12.77;;
52458;SDS011;38372;52.902;6.024;2022-10-17T04:55:59;18.02;;;13.50;;
52458;SDS011;38372;52.902;6.024;2022-10-17T04:58:27;17.60;;;12.75;;
52458;SDS011;38372;52.902;6.024;2022-10-17T05:00:54;18.50;;;13.35;;
52458;SDS011;38372;52.902;6.024;2022-10-17T05:03:19;16.48;;;12.40;;
52458;SDS011;38372;52.902;6.024;2022-10-17T05:05:45;16.35;;;12.98;;
52458;SDS011;38372;52.902;6.024;2022-10-17T05:08:11;18.83;;;14.07;;
52458;SDS011;38372;52.902;6.024;2022-10-17T05:10:41;16.48;;;13.48;;
52458;SDS011;38372;52.902;6.024;2022-10-17T05:13:10;20.80;;;13.13;;
52458;SDS011;38372;52.902;6.024;2022-10-17T05:15:36;18.30;;;13.90;;
52458;SDS011;38372;52.902;6.024;2022-10-17T05:18:03;15.18;;;11.95;;
52458;SDS011;38372;52.902;6.024;2022-10-17T05:20:30;16.23;;;12.18;;
52458;SDS011;38372;52.902;6.024;2022-10-17T05:22:59;22.15;;;14.55;;
52458;SDS011;38372;52.902;6.024;2022-10-17T05:25:25;17.55;;;12.27;;
52458;SDS011;38372;52.902;6.024;2022-10-17T05:27:51;18.48;;;13.00;;
52458;SDS011;38372;52.902;6.024;2022-10-17T05:30:18;19.02;;;13.82;;
52458;SDS011;38372;52.902;6.024;2022-10-17T05:32:43;19.02;;;14.57;;
52458;SDS011;38372;52.902;6.024;2022-10-17T05:35:09;16.60;;;13.40;;
52458;SDS011;38372;52.902;6.024;2022-10-17T05:37:35;15.85;;;12.70;;
52458;SDS011;38372;52.902;6.024;2022-10-17T05:40:01;17.35;;;12.70;;
52458;SDS011;38372;52.902;6.024;2022-10-17T05:42:27;18.45;;;12.80;;
52458;SDS011;38372;52.902;6.024;2022-10-17T05:44:53;17.38;;;11.30;;
52458;SDS011;38372;52.902;6.024;2022-10-17T05:47:19;15.70;;;12.05;;
52458;SDS011;38372;52.902;6.024;2022-10-17T05:49:45;18.98;;;12.23;;
52458;SDS011;38372;52.902;6.024;2022-10-17T05:52:10;14.80;;;10.77;;
52458;SDS011;38372;52.902;6.024;2022-10-17T05:54:36;18.95;;;10.93;;
52458;SDS011;38372;52.902;6.024;2022-10-17T05:57:02;13.52;;;10.50;;
52458;SDS011;38372;52.902;6.024;2022-10-17T05:59:28;17.55;;;11.10;;
52458;SDS011;38372;52.902;6.024;2022-10-17T06:01:53;15.90;;;10.57;;
52458;SDS011;38372;52.902;6.024;2022-10-17T06:04:19;14.70;;;9.85;;
52458;SDS011;38372;52.902;6.024;2022-10-17T06:06:45;14.13;;;10.73;;
52458;SDS011;38372;52.902;6.024;2022-10-17T06:09:11;13.15;;;10.48;;
52458;SDS011;38372;52.902;6.024;2022-10-17T06:11:37;12.40;;;9.25;;
52458;SDS011;38372;52.902;6.024;2022-10-17T06:14:03;13.93;;;8.73;;
52458;SDS011;38372;52.902;6.024;2022-10-17T06:16:28;13.85;;;9.48;;
52458;SDS011;38372;52.902;6.024;2022-10-17T06:18:54;15.43;;;10.98;;
52458;SDS011;38372;52.902;6.024;2022-10-17T06:21:21;15.05;;;10.00;;
52458;SDS011;38372;52.902;6.024;2022-10-17T06:23:48;12.65;;;9.93;;
52458;SDS011;38372;52.902;6.024;2022-10-17T06:26:15;16.92;;;10.52;;
52458;SDS011;38372;52.902;6.024;2022-10-17T06:28:41;14.30;;;9.55;;
52458;SDS011;38372;52.902;6.024;2022-10-17T06:31:07;11.25;;;9.07;;
52458;SDS011;38372;52.902;6.024;2022-10-17T06:33:35;13.82;;;8.85;;
52458;SDS011;38372;52.902;6.024;2022-10-17T06:36:01;13.55;;;9.32;;
52458;SDS011;38372;52.902;6.024;2022-10-17T06:38:28;13.50;;;8.35;;
52458;SDS011;38372;52.902;6.024;2022-10-17T06:40:54;13.15;;;9.40;;
52458;SDS011;38372;52.902;6.024;2022-10-17T06:43:32;12.13;;;9.48;;
52458;SDS011;38372;52.902;6.024;2022-10-17T06:45:59;13.60;;;9.30;;
52458;SDS011;38372;52.902;6.024;2022-10-17T06:48:25;13.43;;;9.05;;
52458;SDS011;38372;52.902;6.024;2022-10-17T06:50:51;14.13;;;8.52;;
52458;SDS011;38372;52.902;6.024;2022-10-17T06:53:16;11.60;;;9.05;;
52458;SDS011;38372;52.902;6.024;2022-10-17T06:55:42;15.07;;;8.68;;
52458;SDS011;38372;52.902;6.024;2022-10-17T06:58:08;12.48;;;8.85;;
52458;SDS011;38372;52.902;6.024;2022-10-17T07:00:34;12.82;;;9.57;;
52458;SDS011;38372;52.902;6.024;2022-10-17T07:02:59;11.73;;;8.32;;
52458;SDS011;38372;52.902;6.024;2022-10-17T07:05:25;14.07;;;8.80;;
52458;SDS011;38372;52.902;6.024;2022-10-17T07:07:51;12.48;;;9.07;;
52458;SDS011;38372;52.902;6.024;2022-10-17T07:10:16;12.55;;;8.45;;
52458;SDS011;38372;52.902;6.024;2022-10-17T07:12:42;11.38;;;8.50;;
52458;SDS011;38372;52.902;6.024;2022-10-17T07:15:09;17.35;;;9.25;;
52458;SDS011;38372;52.902;6.024;2022-10-17T07:17:35;11.27;;;8.20;;
52458;SDS011;38372;52.902;6.024;2022-10-17T07:20:01;12.30;;;8.65;;
52458;SDS011;38372;52.902;6.024;2022-10-17T07:22:27;16.33;;;9.88;;
52458;SDS011;38372;52.902;6.024;2022-10-17T07:24:54;12.00;;;8.43;;
52458;SDS011;38372;52.902;6.024;2022-10-17T07:27:20;12.85;;;8.13;;
52458;SDS011;38372;52.902;6.024;2022-10-17T07:29:45;10.90;;;8.63;;
52458;SDS011;38372;52.902;6.024;2022-10-17T07:32:11;15.48;;;9.50;;
52458;SDS011;38372;52.902;6.024;2022-10-17T07:34:37;12.57;;;8.50;;
52458;SDS011;38372;52.902;6.024;2022-10-17T07:37:03;13.40;;;8.57;;
52458;SDS011;38372;52.902;6.024;2022-10-17T07:39:33;10.90;;;8.38;;
52458;SDS011;38372;52.902;6.024;2022-10-17T07:41:59;11.20;;;7.65;;
52458;SDS011;38372;52.902;6.024;2022-10-17T07:44:25;11.02;;;8.00;;
52458;SDS011;38372;52.902;6.024;2022-10-17T07:46:51;12.30;;;8.95;;
52458;SDS011;38372;52.902;6.024;2022-10-17T07:49:17;12.52;;;9.00;;
52458;SDS011;38372;52.902;6.024;2022-10-17T07:51:42;13.02;;;8.73;;
52458;SDS011;38372;52.902;6.024;2022-10-17T07:54:08;16.75;;;8.98;;
52458;SDS011;38372;52.902;6.024;2022-10-17T07:56:34;9.90;;;8.63;;
52458;SDS011;38372;52.902;6.024;2022-10-17T07:59:00;13.88;;;9.07;;
52458;SDS011;38372;52.902;6.024;2022-10-17T08:01:26;12.25;;;7.82;;
52458;SDS011;38372;52.902;6.024;2022-10-17T08:03:52;9.43;;;7.95;;
52458;SDS011;38372;52.902;6.024;2022-10-17T08:06:18;11.45;;;8.73;;
52458;SDS011;38372;52.902;6.024;2022-10-17T08:08:43;10.73;;;8.45;;
52458;SDS011;38372;52.902;6.024;2022-10-17T08:11:10;12.23;;;8.57;;
52458;SDS011;38372;52.902;6.024;2022-10-17T08:13:36;10.48;;;7.55;;
52458;SDS011;38372;52.902;6.024;2022-10-17T08:16:06;9.75;;;8.13;;
52458;SDS011;38372;52.902;6.024;2022-10-17T08:18:33;11.38;;;8.80;;
52458;SDS011;38372;52.902;6.024;2022-10-17T08:21:01;13.57;;;8.60;;
52458;SDS011;38372;52.902;6.024;2022-10-17T08:23:30;16.35;;;8.55;;
52458;SDS011;38372;52.902;6.024;2022-10-17T08:25:59;12.27;;;8.13;;
52458;SDS011;38372;52.902;6.024;2022-10-17T08:28:26;11.40;;;8.55;;
52458;SDS011;38372;52.902;6.024;2022-10-17T08:31:00;8.88;;;7.50;;
52458;SDS011;38372;52.902;6.024;2022-10-17T08:33:33;11.98;;;8.60;;
52458;SDS011;38372;52.902;6.024;2022-10-17T08:36:00;12.23;;;8.40;;
52458;SDS011;38372;52.902;6.024;2022-10-17T08:38:29;11.73;;;9.05;;
52458;SDS011;38372;52.902;6.024;2022-10-17T08:40:57;10.15;;;7.97;;
52458;SDS011;38372;52.902;6.024;2022-10-17T08:43:29;12.10;;;8.50;;
52458;SDS011;38372;52.902;6.024;2022-10-17T08:45:57;10.52;;;8.32;;
52458;SDS011;38372;52.902;6.024;2022-10-17T08:48:27;12.18;;;8.32;;
52458;SDS011;38372;52.902;6.024;2022-10-17T08:50:58;10.65;;;8.32;;
52458;SDS011;38372;52.902;6.024;2022-10-17T08:54:39;12.05;;;8.60;;
52458;SDS011;38372;52.902;6.024;2022-10-17T08:56:47;11.27;;;8.63;;
52458;SDS011;38372;52.902;6.024;2022-10-17T08:59:19;13.02;;;8.55;;
52458;SDS011;38372;52.902;6.024;2022-10-17T09:01:58;13.73;;;9.00;;
52458;SDS011;38372;52.902;6.024;2022-10-17T09:10:53;13.65;;;8.75;;
52458;SDS011;38372;52.902;6.024;2022-10-17T09:16:18;15.93;;;9.55;;
52458;SDS011;38372;52.902;6.024;2022-10-17T09:21:51;18.27;;;10.27;;
52458;SDS011;38372;52.902;6.024;2022-10-17T09:24:19;17.05;;;10.40;;
52458;SDS011;38372;52.902;6.024;2022-10-17T09:27:09;16.13;;;9.70;;
52458;SDS011;38372;52.902;6.024;2022-10-17T09:31:02;14.70;;;10.35;;
52458;SDS011;38372;52.902;6.024;2022-10-17T09:33:37;18.42;;;11.07;;
52458;SDS011;38372;52.902;6.024;2022-10-17T09:36:09;25.95;;;10.23;;
52458;SDS011;38372;52.902;6.024;2022-10-17T09:38:46;21.35;;;10.98;;
52458;SDS011;38372;52.902;6.024;2022-10-17T09:41:21;19.60;;;11.30;;
52458;SDS011;38372;52.902;6.024;2022-10-17T09:43:55;18.63;;;12.13;;
52458;SDS011;38372;52.902;6.024;2022-10-17T09:46:35;20.27;;;11.43;;
52458;SDS011;38372;52.902;6.024;2022-10-17T09:49:05;24.45;;;11.35;;
52458;SDS011;38372;52.902;6.024;2022-10-17T09:51:36;18.40;;;11.80;;
52458;SDS011;38372;52.902;6.024;2022-10-17T09:54:03;18.15;;;12.38;;
52458;SDS011;38372;52.902;6.024;2022-10-17T09:59:36;17.88;;;11.00;;
52458;SDS011;38372;52.902;6.024;2022-10-17T10:02:08;25.95;;;13.75;;
52458;SDS011;38372;52.902;6.024;2022-10-17T10:07:18;21.83;;;13.20;;
52458;SDS011;38372;52.902;6.024;2022-10-17T10:09:45;16.20;;;11.32;;
52458;SDS011;38372;52.902;6.024;2022-10-17T10:12:20;21.92;;;12.73;;
52458;SDS011;38372;52.902;6.024;2022-10-17T10:14:49;18.10;;;12.68;;
52458;SDS011;38372;52.902;6.024;2022-10-17T10:19:51;26.33;;;14.80;;
52458;SDS011;38372;52.902;6.024;2022-10-17T10:22:19;32.33;;;18.05;;
52458;SDS011;38372;52.902;6.024;2022-10-17T10:25:12;20.50;;;14.40;;
52458;SDS011;38372;52.902;6.024;2022-10-17T10:27:43;19.17;;;11.55;;
52458;SDS011;38372;52.902;6.024;2022-10-17T10:30:18;18.45;;;11.90;;
52458;SDS011;38372;52.902;6.024;2022-10-17T10:32:56;19.38;;;12.45;;
52458;SDS011;38372;52.902;6.024;2022-10-17T10:35:32;20.90;;;11.15;;
52458;SDS011;38372;52.902;6.024;2022-10-17T10:38:00;15.45;;;10.93;;
52458;SDS011;38372;52.902;6.024;2022-10-17T10:40:49;14.18;;;10.27;;
52458;SDS011;38372;52.902;6.024;2022-10-17T10:46:25;17.15;;;11.80;;
52458;SDS011;38372;52.902;6.024;2022-10-17T10:48:58;18.02;;;11.27;;
52458;SDS011;38372;52.902;6.024;2022-10-17T10:54:10;16.77;;;11.30;;
52458;SDS011;38372;52.902;6.024;2022-10-17T10:56:49;19.55;;;11.57;;
52458;SDS011;38372;52.902;6.024;2022-10-17T11:02:10;15.18;;;10.48;;
52458;SDS011;38372;52.902;6.024;2022-10-17T11:04:45;16.65;;;11.20;;
52458;SDS011;38372;52.902;6.024;2022-10-17T11:07:34;15.43;;;10.85;;
52458;SDS011;38372;52.902;6.024;2022-10-17T11:13:25;18.52;;;10.73;;
52458;SDS011;38372;52.902;6.024;2022-10-17T11:24:28;20.60;;;10.10;;
52458;SDS011;38372;52.902;6.024;2022-10-17T11:27:17;15.25;;;9.45;;
52458;SDS011;38372;52.902;6.024;2022-10-17T11:29:44;15.25;;;9.45;;
52458;SDS011;38372;52.902;6.024;2022-10-17T11:32:12;25.52;;;11.50;;
52458;SDS011;38372;52.902;6.024;2022-10-17T11:35:02;20.88;;;9.65;;
52458;SDS011;38372;52.902;6.024;2022-10-17T11:37:37;16.23;;;9.68;;
52458;SDS011;38372;52.902;6.024;2022-10-17T11:40:17;13.80;;;8.43;;
52458;SDS011;38372;52.902;6.024;2022-10-17T11:43:05;15.27;;;7.90;;
52458;SDS011;38372;52.902;6.024;2022-10-17T11:45:45;11.63;;;6.25;;
52458;SDS011;38372;52.902;6.024;2022-10-17T11:50:59;21.37;;;7.70;;
52458;SDS011;38372;52.902;6.024;2022-10-17T11:56:35;10.18;;;7.40;;
52458;SDS011;38372;52.902;6.024;2022-10-17T12:02:02;11.40;;;5.90;;
52458;SDS011;38372;52.902;6.024;2022-10-17T12:10:36;14.00;;;5.50;;
52458;SDS011;38372;52.902;6.024;2022-10-17T12:13:52;5.22;;;4.40;;
52458;SDS011;38372;52.902;6.024;2022-10-17T12:18:48;5.75;;;4.38;;
52458;SDS011;38372;52.902;6.024;2022-10-17T12:21:28;6.85;;;3.60;;
52458;SDS011;38372;52.902;6.024;2022-10-17T12:30:05;4.78;;;3.28;;
52458;SDS011;38372;52.902;6.024;2022-10-17T12:32:52;10.88;;;3.95;;
52458;SDS011;38372;52.902;6.024;2022-10-17T12:35:27;8.15;;;4.65;;
52458;SDS011;38372;52.902;6.024;2022-10-17T12:38:13;7.47;;;3.95;;
52458;SDS011;38372;52.902;6.024;2022-10-17T12:51:07;7.82;;;5.40;;
52458;SDS011;38372;52.902;6.024;2022-10-17T12:53:42;10.25;;;5.70;;
52458;SDS011;38372;52.902;6.024;2022-10-17T12:56:29;8.90;;;5.45;;
52458;SDS011;38372;52.902;6.024;2022-10-17T12:58:59;16.10;;;7.07;;
52458;SDS011;38372;52.902;6.024;2022-10-17T13:01:30;10.10;;;4.93;;
52458;SDS011;38372;52.902;6.024;2022-10-17T13:03:57;14.15;;;5.90;;
52458;SDS011;38372;52.902;6.024;2022-10-17T13:06:29;9.55;;;4.35;;
52458;SDS011;38372;52.902;6.024;2022-10-17T13:09:05;9.48;;;3.90;;
52458;SDS011;38372;52.902;6.024;2022-10-17T13:11:39;13.23;;;4.35;;
52458;SDS011;38372;52.902;6.024;2022-10-17T13:14:13;14.35;;;4.57;;
52458;SDS011;38372;52.902;6.024;2022-10-17T13:16:55;8.80;;;4.57;;
52458;SDS011;38372;52.902;6.024;2022-10-17T13:19:22;9.52;;;4.07;;
52458;SDS011;38372;52.902;6.024;2022-10-17T13:21:58;6.68;;;3.55;;
52458;SDS011;38372;52.902;6.024;2022-10-17T13:24:40;9.80;;;4.57;;
52458;SDS011;38372;52.902;6.024;2022-10-17T13:29:57;10.30;;;3.13;;
52458;SDS011;38372;52.902;6.024;2022-10-17T13:32:25;7.60;;;3.53;;
52458;SDS011;38372;52.902;6.024;2022-10-17T13:35:11;5.57;;;3.47;;
52458;SDS011;38372;52.902;6.024;2022-10-17T13:37:42;14.32;;;3.80;;
52458;SDS011;38372;52.902;6.024;2022-10-17T13:40:14;6.85;;;2.72;;
52458;SDS011;38372;52.902;6.024;2022-10-17T13:42:41;4.30;;;2.38;;
52458;SDS011;38372;52.902;6.024;2022-10-17T13:45:18;8.05;;;3.25;;
52458;SDS011;38372;52.902;6.024;2022-10-17T13:48:03;7.13;;;2.83;;
52458;SDS011;38372;52.902;6.024;2022-10-17T13:50:35;7.00;;;2.63;;
52458;SDS011;38372;52.902;6.024;2022-10-17T13:53:15;5.72;;;2.30;;
52458;SDS011;38372;52.902;6.024;2022-10-17T13:55:55;9.73;;;2.75;;
52458;SDS011;38372;52.902;6.024;2022-10-17T13:58:22;6.13;;;2.38;;
52458;SDS011;38372;52.902;6.024;2022-10-17T14:00:49;7.18;;;2.65;;
52458;SDS011;38372;52.902;6.024;2022-10-17T14:03:18;7.05;;;2.72;;
52458;SDS011;38372;52.902;6.024;2022-10-17T14:08:31;5.68;;;2.28;;
52458;SDS011;38372;52.902;6.024;2022-10-17T14:10:58;8.73;;;2.60;;
52458;SDS011;38372;52.902;6.024;2022-10-17T14:13:29;16.83;;;2.88;;
52458;SDS011;38372;52.902;6.024;2022-10-17T14:16:01;9.20;;;2.50;;
52458;SDS011;38372;52.902;6.024;2022-10-17T14:18:29;5.53;;;2.00;;
52458;SDS011;38372;52.902;6.024;2022-10-17T14:21:00;5.63;;;2.22;;
52458;SDS011;38372;52.902;6.024;2022-10-17T14:23:39;7.45;;;2.53;;
52458;SDS011;38372;52.902;6.024;2022-10-17T14:26:17;8.10;;;2.58;;
52458;SDS011;38372;52.902;6.024;2022-10-17T14:28:48;4.55;;;2.40;;
52458;SDS011;38372;52.902;6.024;2022-10-17T14:31:31;5.68;;;2.67;;
52458;SDS011;38372;52.902;6.024;2022-10-17T14:33:59;4.28;;;2.42;;
52458;SDS011;38372;52.902;6.024;2022-10-17T14:36:34;5.40;;;2.45;;
52458;SDS011;38372;52.902;6.024;2022-10-17T14:39:05;3.42;;;2.20;;
52458;SDS011;38372;52.902;6.024;2022-10-17T14:41:33;3.92;;;2.28;;
52458;SDS011;38372;52.902;6.024;2022-10-17T14:44:02;4.22;;;2.10;;
52458;SDS011;38372;52.902;6.024;2022-10-17T14:46:31;6.55;;;2.22;;
52458;SDS011;38372;52.902;6.024;2022-10-17T14:49:07;5.65;;;2.33;;
52458;SDS011;38372;52.902;6.024;2022-10-17T14:54:49;5.78;;;2.40;;
52458;SDS011;38372;52.902;6.024;2022-10-17T14:57:25;7.15;;;2.25;;
52458;SDS011;38372;52.902;6.024;2022-10-17T14:59:57;9.00;;;2.40;;
52458;SDS011;38372;52.902;6.024;2022-10-17T15:02:28;9.30;;;3.13;;
52458;SDS011;38372;52.902;6.024;2022-10-17T15:04:54;5.35;;;2.60;;
52458;SDS011;38372;52.902;6.024;2022-10-17T15:07:20;6.30;;;2.75;;
52458;SDS011;38372;52.902;6.024;2022-10-17T15:09:48;8.40;;;3.42;;
52458;SDS011;38372;52.902;6.024;2022-10-17T15:12:16;4.40;;;2.35;;
52458;SDS011;38372;52.902;6.024;2022-10-17T15:14:43;8.10;;;2.90;;
52458;SDS011;38372;52.902;6.024;2022-10-17T15:17:17;9.00;;;2.90;;
52458;SDS011;38372;52.902;6.024;2022-10-17T15:19:46;5.63;;;2.40;;
52458;SDS011;38372;52.902;6.024;2022-10-17T15:22:12;7.03;;;2.95;;
52458;SDS011;38372;52.902;6.024;2022-10-17T15:24:40;5.55;;;2.97;;
52458;SDS011;38372;52.902;6.024;2022-10-17T15:27:16;5.30;;;2.80;;
52458;SDS011;38372;52.902;6.024;2022-10-17T15:32:12;7.22;;;3.38;;
52458;SDS011;38372;52.902;6.024;2022-10-17T15:34:39;8.95;;;3.50;;
52458;SDS011;38372;52.902;6.024;2022-10-17T15:37:05;7.32;;;3.50;;
52458;SDS011;38372;52.902;6.024;2022-10-17T15:39:41;5.82;;;3.22;;
52458;SDS011;38372;52.902;6.024;2022-10-17T15:42:08;4.15;;;3.22;;
52458;SDS011;38372;52.902;6.024;2022-10-17T15:44:36;6.93;;;3.95;;
52458;SDS011;38372;52.902;6.024;2022-10-17T15:47:02;5.97;;;4.60;;
52458;SDS011;38372;52.902;6.024;2022-10-17T15:49:29;4.78;;;3.55;;
52458;SDS011;38372;52.902;6.024;2022-10-17T15:51:55;7.72;;;3.85;;
52458;SDS011;38372;52.902;6.024;2022-10-17T15:54:22;10.10;;;4.20;;
52458;SDS011;38372;52.902;6.024;2022-10-17T15:56:52;9.30;;;4.63;;
52458;SDS011;38372;52.902;6.024;2022-10-17T15:59:20;7.90;;;4.28;;
52458;SDS011;38372;52.902;6.024;2022-10-17T16:01:50;9.95;;;4.63;;
52458;SDS011;38372;52.902;6.024;2022-10-17T16:04:17;5.75;;;4.38;;
52458;SDS011;38372;52.902;6.024;2022-10-17T16:06:46;12.27;;;4.65;;
52458;SDS011;38372;52.902;6.024;2022-10-17T16:09:13;8.52;;;4.53;;
52458;SDS011;38372;52.902;6.024;2022-10-17T16:11:40;7.35;;;4.07;;
52458;SDS011;38372;52.902;6.024;2022-10-17T16:14:11;9.95;;;5.18;;
52458;SDS011;38372;52.902;6.024;2022-10-17T16:16:39;7.43;;;4.85;;
52458;SDS011;38372;52.902;6.024;2022-10-17T16:19:05;11.00;;;4.65;;
52458;SDS011;38372;52.902;6.024;2022-10-17T16:21:36;7.72;;;4.90;;
52458;SDS011;38372;52.902;6.024;2022-10-17T16:24:04;8.45;;;5.30;;
52458;SDS011;38372;52.902;6.024;2022-10-17T16:26:30;7.85;;;4.93;;
52458;SDS011;38372;52.902;6.024;2022-10-17T16:28:56;8.80;;;4.85;;
52458;SDS011;38372;52.902;6.024;2022-10-17T16:31:30;10.10;;;5.60;;
52458;SDS011;38372;52.902;6.024;2022-10-17T16:34:00;11.05;;;5.38;;
52458;SDS011;38372;52.902;6.024;2022-10-17T16:36:26;11.00;;;5.57;;
52458;SDS011;38372;52.902;6.024;2022-10-17T16:38:52;7.53;;;5.38;;
52458;SDS011;38372;52.902;6.024;2022-10-17T16:41:20;7.70;;;4.95;;
52458;SDS011;38372;52.902;6.024;2022-10-17T16:43:50;7.40;;;5.53;;
52458;SDS011;38372;52.902;6.024;2022-10-17T16:46:17;10.02;;;5.70;;
52458;SDS011;38372;52.902;6.024;2022-10-17T16:48:43;10.45;;;5.32;;
52458;SDS011;38372;52.902;6.024;2022-10-17T16:51:11;7.53;;;6.30;;
52458;SDS011;38372;52.902;6.024;2022-10-17T16:53:37;10.27;;;5.50;;